createdAt,value
2023-01-03T00:01:57.092Z,5.30
2023-01-03T00:04:29.394Z,5.70
2023-01-03T00:06:59.050Z,5.13
2023-01-03T00:09:28.671Z,5.47
2023-01-03T00:12:10.798Z,5.57
2023-01-03T00:14:42.022Z,5.03
2023-01-03T00:17:13.282Z,4.90
2023-01-03T00:19:47.496Z,5.27
2023-01-03T00:22:19.048Z,5.10
2023-01-03T00:24:50.457Z,5.20
2023-01-03T00:27:20.253Z,5.47
2023-01-03T00:29:49.918Z,5.60
2023-01-03T00:32:19.564Z,5.00
2023-01-03T00:34:51.769Z,5.30
2023-01-03T00:37:21.558Z,5.23
2023-01-03T00:39:51.182Z,4.63
2023-01-03T00:42:20.790Z,5.70
2023-01-03T00:44:50.379Z,4.87
2023-01-03T00:47:20.025Z,4.90
2023-01-03T00:49:52.194Z,5.00
2023-01-03T00:52:21.796Z,5.43
2023-01-03T00:54:51.399Z,5.93
2023-01-03T00:57:21.027Z,4.80
2023-01-03T00:59:50.714Z,5.50
2023-01-03T01:02:20.578Z,4.53
2023-01-03T01:04:53.204Z,4.87
2023-01-03T01:07:22.815Z,4.87
2023-01-03T01:09:53.015Z,5.70
2023-01-03T01:12:22.702Z,5.30
2023-01-03T01:14:52.353Z,5.40
2023-01-03T01:17:23.084Z,4.40
2023-01-03T01:19:55.458Z,4.63
2023-01-03T01:22:25.123Z,4.47
2023-01-03T01:24:54.762Z,4.60
2023-01-03T01:27:25.617Z,4.17
2023-01-03T01:29:55.313Z,4.37
2023-01-03T01:32:25.037Z,4.50
2023-01-03T01:34:57.242Z,4.67
2023-01-03T01:37:26.854Z,4.30
2023-01-03T01:39:56.478Z,4.47
2023-01-03T01:42:38.631Z,4.70
2023-01-03T01:45:15.005Z,4.27
2023-01-03T01:47:52.337Z,5.03
2023-01-03T01:50:32.174Z,4.30
2023-01-03T01:53:05.671Z,5.10
2023-01-03T01:55:40.095Z,5.03
2023-01-03T01:58:12.672Z,4.70
2023-01-03T02:00:44.760Z,5.80
2023-01-03T02:03:15.168Z,5.80
2023-01-03T02:05:51.216Z,9.37
2023-01-03T02:08:21.133Z,7.83
2023-01-03T02:11:10.611Z,6.93
2023-01-03T02:13:49.125Z,6.90
2023-01-03T02:16:32.629Z,6.70
2023-01-03T02:19:16.593Z,7.60
2023-01-03T02:22:11.569Z,7.40
2023-01-03T02:25:03.069Z,8.17
2023-01-03T02:28:11.927Z,7.90
2023-01-03T02:30:51.782Z,7.80
2023-01-03T02:33:31.743Z,8.37
2023-01-03T02:36:10.032Z,7.40
2023-01-03T02:38:50.348Z,7.80
2023-01-03T02:41:32.353Z,7.73
2023-01-03T02:44:09.182Z,7.80
2023-01-03T02:46:46.934Z,8.90
2023-01-03T02:49:22.869Z,8.23
2023-01-03T02:51:57.144Z,7.43
2023-01-03T02:54:33.566Z,7.63
2023-01-03T02:57:07.319Z,6.50
2023-01-03T02:59:43.807Z,8.37
2023-01-03T03:02:19.804Z,8.67
2023-01-03T03:04:53.450Z,10.10
2023-01-03T03:07:27.702Z,10.47
2023-01-03T03:10:11.591Z,10.10
2023-01-03T03:12:57.747Z,9.97
2023-01-03T03:15:35.079Z,10.50
2023-01-03T03:18:11.072Z,11.27
2023-01-03T03:20:53.267Z,11.50
2023-01-03T03:23:42.519Z,12.47
2023-01-03T03:26:15.294Z,13.10
2023-01-03T03:28:47.841Z,11.30
2023-01-03T03:31:22.987Z,12.07
2023-01-03T03:34:00.251Z,12.73
2023-01-03T03:36:38.282Z,13.63
2023-01-03T03:39:30.836Z,14.17
2023-01-03T03:42:23.847Z,14.07
2023-01-03T03:45:04.310Z,13.87
2023-01-03T03:47:44.107Z,13.07
2023-01-03T03:50:21.146Z,15.47
2023-01-03T03:52:55.682Z,14.40
2023-01-03T03:55:30.660Z,14.60
2023-01-03T03:58:03.865Z,14.40
2023-01-03T04:00:38.699Z,14.37
2023-01-03T04:03:10.128Z,15.23
2023-01-03T04:05:46.776Z,13.90
2023-01-03T04:08:16.548Z,14.80
2023-01-03T04:10:46.537Z,16.50
2023-01-03T04:13:16.264Z,15.07
2023-01-03T04:15:45.897Z,15.87
2023-01-03T04:18:15.555Z,16.00
2023-01-03T04:20:47.742Z,17.20
2023-01-03T04:23:17.392Z,15.73
2023-01-03T04:25:49.145Z,17.10
2023-01-03T04:28:19.280Z,16.00
2023-01-03T04:30:49.762Z,17.47
2023-01-03T04:33:19.715Z,17.07
2023-01-03T04:35:51.920Z,15.60
2023-01-03T04:38:21.572Z,18.10
2023-01-03T04:40:51.269Z,18.33
2023-01-03T04:43:33.446Z,18.20
2023-01-03T04:46:03.179Z,19.20
2023-01-03T04:48:32.821Z,19.70
2023-01-03T04:51:05.007Z,21.50
2023-01-03T04:53:34.666Z,19.50
2023-01-03T04:56:04.328Z,22.17
2023-01-03T04:58:34.020Z,20.60
2023-01-03T05:01:04.645Z,21.10
2023-01-03T05:03:35.609Z,20.20
2023-01-03T05:06:10.341Z,20.97
2023-01-03T05:08:40.024Z,21.40
2023-01-03T05:11:10.203Z,22.43
2023-01-03T05:13:39.817Z,22.23
2023-01-03T05:16:12.233Z,21.60
2023-01-03T05:18:45.187Z,22.63
2023-01-03T05:21:33.095Z,23.60
2023-01-03T05:24:15.528Z,22.90
2023-01-03T05:26:46.387Z,22.20
2023-01-03T05:29:18.058Z,22.07
2023-01-03T05:31:47.786Z,24.53
2023-01-03T05:34:17.851Z,23.50
2023-01-03T05:36:50.132Z,23.37
2023-01-03T05:39:19.765Z,25.00
2023-01-03T05:42:04.466Z,24.77
2023-01-03T05:44:36.847Z,26.03
2023-01-03T05:47:08.183Z,23.70
2023-01-03T05:49:37.896Z,24.40
2023-01-03T05:52:10.230Z,24.27
2023-01-03T05:54:39.819Z,24.23
2023-01-03T05:57:09.459Z,24.47
2023-01-03T05:59:39.258Z,24.23
2023-01-03T06:02:09.047Z,22.93
2023-01-03T06:04:38.895Z,22.70
2023-01-03T06:07:11.163Z,21.80
2023-01-03T06:09:40.892Z,21.67
2023-01-03T06:12:10.696Z,20.90
2023-01-03T06:14:41.072Z,21.27
2023-01-03T06:17:23.270Z,20.83
2023-01-03T06:19:52.923Z,20.63
2023-01-03T06:22:25.119Z,21.40
2023-01-03T06:24:54.698Z,21.80
2023-01-03T06:27:24.328Z,21.83
2023-01-03T06:29:54.046Z,21.40
2023-01-03T06:32:23.766Z,20.20
2023-01-03T06:34:53.361Z,21.97
2023-01-03T06:37:25.667Z,21.73
2023-01-03T06:39:55.263Z,21.33
2023-01-03T06:42:37.175Z,20.87
2023-01-03T06:45:20.308Z,20.60
2023-01-03T06:48:02.519Z,22.30
2023-01-03T06:50:44.674Z,22.07
2023-01-03T06:53:19.606Z,22.10
2023-01-03T06:55:56.341Z,20.80
2023-01-03T06:58:27.640Z,20.40
2023-01-03T07:00:58.792Z,22.77
2023-01-03T07:03:28.603Z,22.63
2023-01-03T07:05:58.217Z,23.43
2023-01-03T07:08:30.635Z,22.83
2023-01-03T07:11:00.320Z,23.73
2023-01-03T07:13:54.277Z,23.37
2023-01-03T07:16:23.891Z,21.67
2023-01-03T07:18:55.513Z,23.70
2023-01-03T07:21:26.133Z,24.07
2023-01-03T07:24:01.820Z,24.13
2023-01-03T07:26:33.664Z,23.80
2023-01-03T07:29:06.371Z,23.80
2023-01-03T07:31:36.029Z,24.73
2023-01-03T07:34:05.719Z,23.73
2023-01-03T07:36:35.361Z,23.90
2023-01-03T07:39:07.616Z,24.30
2023-01-03T07:41:49.754Z,23.43
2023-01-03T07:44:21.187Z,24.50
2023-01-03T07:46:50.887Z,23.77
2023-01-03T07:49:20.580Z,21.70
2023-01-03T07:51:50.183Z,24.40
2023-01-03T07:54:22.629Z,24.80
2023-01-03T07:56:54.226Z,26.30
2023-01-03T07:59:23.875Z,25.67
2023-01-03T08:01:53.648Z,28.00
2023-01-03T08:04:23.527Z,24.77
2023-01-03T08:06:54.114Z,25.03
2023-01-03T08:09:38.952Z,25.93
2023-01-03T08:12:23.579Z,26.43
2023-01-03T08:14:53.248Z,26.80
2023-01-03T08:17:23.073Z,26.83
2023-01-03T08:19:52.779Z,26.73
2023-01-03T08:22:22.486Z,26.77
2023-01-03T08:24:54.771Z,26.73
2023-01-03T08:27:24.446Z,26.20
2023-01-03T08:29:54.088Z,24.57
2023-01-03T08:32:24.246Z,26.40
2023-01-03T08:34:55.288Z,26.03
2023-01-03T08:37:25.129Z,26.73
2023-01-03T08:40:04.961Z,25.07
2023-01-03T08:42:36.596Z,24.50
2023-01-03T08:45:11.965Z,26.37
2023-01-03T08:47:41.995Z,27.20
2023-01-03T08:50:13.434Z,26.60
2023-01-03T08:52:47.085Z,27.93
2023-01-03T08:55:19.432Z,27.57
2023-01-03T08:57:50.268Z,25.97
2023-01-03T09:00:20.512Z,32.70
2023-01-03T09:02:50.498Z,46.03
2023-01-03T09:05:21.691Z,72.90
2023-01-03T09:07:53.425Z,58.90
2023-01-03T09:10:26.090Z,46.83
2023-01-03T09:12:55.977Z,46.15
2023-01-03T09:15:26.537Z,40.47
2023-01-03T09:18:00.108Z,33.53
2023-01-03T09:20:30.831Z,36.53
2023-01-03T09:23:02.052Z,30.80
2023-01-03T09:25:37.213Z,31.60
2023-01-03T09:28:08.302Z,28.60
2023-01-03T09:30:37.941Z,28.47
2023-01-03T09:33:10.702Z,32.17
2023-01-03T09:35:40.611Z,29.87
2023-01-03T09:38:11.457Z,29.23
2023-01-03T09:40:50.719Z,30.07
2023-01-03T09:43:25.664Z,32.07
2023-01-03T09:45:59.961Z,36.60
2023-01-03T09:48:34.998Z,29.73
2023-01-03T09:51:31.173Z,38.47
2023-01-03T09:54:14.387Z,32.33
2023-01-03T09:56:59.565Z,29.67
2023-01-03T09:59:42.184Z,29.43
2023-01-03T10:02:44.333Z,27.83
2023-01-03T10:05:36.802Z,25.20
2023-01-03T10:08:31.178Z,23.43
2023-01-03T10:11:08.128Z,22.13
2023-01-03T10:13:51.982Z,21.63
2023-01-03T10:16:34.495Z,22.70
2023-01-03T10:19:20.079Z,21.40
2023-01-03T10:21:57.340Z,20.30
2023-01-03T10:24:29.163Z,19.60
2023-01-03T10:27:10.577Z,19.00
2023-01-03T10:29:44.139Z,19.13
2023-01-03T10:32:31.920Z,20.50
2023-01-03T10:35:18.419Z,18.30
2023-01-03T10:37:49.162Z,19.87
2023-01-03T10:40:19.164Z,19.33
2023-01-03T10:42:55.508Z,19.43
2023-01-03T10:45:27.859Z,17.67
2023-01-03T10:48:01.708Z,18.10
2023-01-03T10:50:40.627Z,18.63
2023-01-03T10:53:16.237Z,19.07
2023-01-03T10:55:52.634Z,17.00
2023-01-03T10:58:30.604Z,16.33
2023-01-03T11:01:24.874Z,16.13
2023-01-03T11:04:20.025Z,15.30
2023-01-03T11:07:01.646Z,14.80
2023-01-03T11:09:37.550Z,13.07
2023-01-03T11:12:13.950Z,13.77
2023-01-03T11:14:52.508Z,11.77
2023-01-03T11:17:26.639Z,11.63
2023-01-03T11:19:57.857Z,11.50
2023-01-03T11:22:38.179Z,11.10
2023-01-03T11:25:21.984Z,11.33
2023-01-03T11:28:18.243Z,9.97
2023-01-03T11:31:01.119Z,9.83
2023-01-03T11:34:02.833Z,9.87
2023-01-03T11:36:43.075Z,9.40
2023-01-03T11:39:29.683Z,9.57
2023-01-03T11:42:30.012Z,9.50
2023-01-03T11:45:27.751Z,8.70
2023-01-03T11:48:14.198Z,8.77
2023-01-03T11:50:54.970Z,9.00
2023-01-03T11:53:37.115Z,9.03
2023-01-03T11:56:19.387Z,7.83
2023-01-03T11:59:14.122Z,8.07
2023-01-03T12:02:16.619Z,6.60
2023-01-03T12:05:01.590Z,6.70
2023-01-03T12:07:51.904Z,5.93
2023-01-03T12:10:27.665Z,5.30
2023-01-03T12:13:08.402Z,5.27
2023-01-03T12:15:47.431Z,6.17
2023-01-03T12:18:25.496Z,6.00
2023-01-03T12:20:59.939Z,5.70
2023-01-03T12:23:41.682Z,4.87
2023-01-03T12:26:14.314Z,4.53
2023-01-03T12:28:45.827Z,4.30
2023-01-03T12:31:31.241Z,5.17
2023-01-03T12:34:11.499Z,4.27
2023-01-03T12:36:46.846Z,4.70
2023-01-03T12:39:45.445Z,4.70
2023-01-03T12:42:25.060Z,4.10
2023-01-03T12:45:02.521Z,4.93
2023-01-03T12:47:38.569Z,4.00
2023-01-03T12:50:19.411Z,4.73
2023-01-03T12:52:57.303Z,3.90
2023-01-03T12:55:44.037Z,4.70
2023-01-03T12:58:33.861Z,3.57
2023-01-03T13:01:15.664Z,3.37
2023-01-03T13:03:52.771Z,2.63
2023-01-03T13:06:26.417Z,2.70
2023-01-03T13:09:01.570Z,3.17
2023-01-03T13:11:39.872Z,2.97
2023-01-03T13:14:23.606Z,3.07
2023-01-03T13:16:53.990Z,3.00
2023-01-03T13:19:42.684Z,2.47
2023-01-03T13:22:52.236Z,2.27
2023-01-03T13:25:45.898Z,2.87
2023-01-03T13:28:37.549Z,2.33
2023-01-03T13:31:48.134Z,2.57
2023-01-03T13:34:37.039Z,2.73
2023-01-03T13:37:20.973Z,3.67
2023-01-03T13:40:52.094Z,2.57
2023-01-03T13:43:23.346Z,2.53
2023-01-03T13:45:59.046Z,2.60
2023-01-03T13:48:35.965Z,2.53
2023-01-03T13:51:28.883Z,2.80
2023-01-03T13:54:02.125Z,3.00
2023-01-03T13:56:34.066Z,2.60
2023-01-03T13:59:14.088Z,2.30
2023-01-03T14:02:02.304Z,3.10
2023-01-03T14:05:00.478Z,2.77
2023-01-03T14:07:56.546Z,2.70
2023-01-03T14:10:41.416Z,2.90
2023-01-03T14:13:41.029Z,3.00
2023-01-03T14:16:25.382Z,3.27
2023-01-03T14:19:14.996Z,2.47
2023-01-03T14:21:49.093Z,2.40
2023-01-03T14:24:24.352Z,3.00
2023-01-03T14:26:54.678Z,3.00
2023-01-03T14:29:27.153Z,3.00
2023-01-03T14:32:00.474Z,2.30
2023-01-03T14:34:43.921Z,3.30
2023-01-03T14:37:17.836Z,3.33
2023-01-03T14:39:57.615Z,3.33
2023-01-03T14:42:27.856Z,3.27
2023-01-03T14:45:05.223Z,3.10
2023-01-03T14:47:40.072Z,2.50
2023-01-03T14:50:17.923Z,2.70
2023-01-03T14:52:53.673Z,3.23
2023-01-03T14:55:28.927Z,2.57
2023-01-03T14:57:59.580Z,2.77
2023-01-03T15:00:33.526Z,2.97
2023-01-03T15:03:04.974Z,2.83
2023-01-03T15:05:40.785Z,2.90
2023-01-03T15:08:25.415Z,2.67
2023-01-03T15:10:59.741Z,2.50
2023-01-03T15:13:35.769Z,3.20
2023-01-03T15:16:21.258Z,2.73
2023-01-03T15:18:52.321Z,3.10
2023-01-03T15:21:28.010Z,3.17
2023-01-03T15:24:00.038Z,3.50
2023-01-03T15:26:42.113Z,3.30
2023-01-03T15:29:16.820Z,3.10
2023-01-03T15:31:53.804Z,3.43
2023-01-03T15:34:28.490Z,3.80
2023-01-03T15:37:03.319Z,7.13
2023-01-03T15:39:42.917Z,5.23
2023-01-03T15:42:44.677Z,3.80
2023-01-03T15:45:21.929Z,3.70
2023-01-03T15:47:54.187Z,3.60
2023-01-03T15:50:36.628Z,3.27
2023-01-03T15:53:23.840Z,4.10
2023-01-03T15:55:55.320Z,3.57
2023-01-03T15:58:27.380Z,5.47
2023-01-03T16:00:57.609Z,6.63
2023-01-03T16:03:32.443Z,6.10
2023-01-03T16:06:06.442Z,8.40
2023-01-03T16:08:42.569Z,9.57
2023-01-03T16:11:19.871Z,6.10
2023-01-03T16:13:54.802Z,5.33
2023-01-03T16:16:29.220Z,4.13
2023-01-03T16:19:04.102Z,4.27
2023-01-03T16:21:34.182Z,3.60
2023-01-03T16:24:06.704Z,4.33
2023-01-03T16:26:36.367Z,4.43
2023-01-03T16:29:08.036Z,5.07
2023-01-03T16:31:42.297Z,4.67
2023-01-03T16:34:20.148Z,5.17
2023-01-03T16:36:55.501Z,5.83
2023-01-03T16:39:29.399Z,4.57
2023-01-03T16:42:12.584Z,4.60
2023-01-03T16:44:44.161Z,3.93
2023-01-03T16:47:18.281Z,2.97
2023-01-03T16:49:50.119Z,3.70
2023-01-03T16:52:26.944Z,3.20
2023-01-03T16:54:59.402Z,3.60
2023-01-03T16:57:30.725Z,3.50
2023-01-03T17:00:00.518Z,3.60
2023-01-03T17:02:34.194Z,3.80
2023-01-03T17:05:04.979Z,3.93
2023-01-03T17:07:34.862Z,4.60
2023-01-03T17:10:26.062Z,3.53
2023-01-03T17:13:04.114Z,3.47
2023-01-03T17:15:38.122Z,3.30
2023-01-03T17:18:08.822Z,3.50
2023-01-03T17:20:38.501Z,3.23
2023-01-03T17:23:12.017Z,4.10
2023-01-03T17:25:44.725Z,3.53
2023-01-03T17:28:20.219Z,3.80
2023-01-03T17:30:56.662Z,3.90
2023-01-03T17:33:32.077Z,3.80
2023-01-03T17:36:03.701Z,4.03
2023-01-03T17:38:37.349Z,4.80
2023-01-03T17:41:16.886Z,5.63
2023-01-03T17:43:46.559Z,4.97
2023-01-03T17:46:32.846Z,5.93
2023-01-03T17:49:18.666Z,6.63
2023-01-03T17:51:48.820Z,5.27
2023-01-03T17:54:18.814Z,3.50
2023-01-03T17:56:52.095Z,3.07
2023-01-03T17:59:21.759Z,3.33
2023-01-03T18:01:52.355Z,3.37
2023-01-03T18:04:30.207Z,4.20
2023-01-03T18:07:08.204Z,3.53
2023-01-03T18:09:38.298Z,2.83
2023-01-03T18:12:12.464Z,2.73
2023-01-03T18:14:42.051Z,3.17
2023-01-03T18:17:29.760Z,3.30
2023-01-03T18:20:00.998Z,2.83
2023-01-03T18:22:34.172Z,2.93
2023-01-03T18:25:03.834Z,3.37
2023-01-03T18:27:37.360Z,3.03
2023-01-03T18:30:08.429Z,3.40
2023-01-03T18:32:38.069Z,2.90
2023-01-03T18:35:09.646Z,2.60
2023-01-03T18:37:43.642Z,3.27
2023-01-03T18:40:21.169Z,2.77
2023-01-03T18:43:06.978Z,2.80
2023-01-03T18:45:38.347Z,3.00
2023-01-03T18:48:08.879Z,3.80
2023-01-03T18:50:39.470Z,4.20
2023-01-03T18:53:09.460Z,3.97
2023-01-03T18:55:39.115Z,3.90
2023-01-03T18:58:19.835Z,4.53
2023-01-03T19:00:53.141Z,3.73
2023-01-03T19:03:25.646Z,3.37
2023-01-03T19:05:57.414Z,3.10
2023-01-03T19:08:29.222Z,3.70
2023-01-03T19:11:00.378Z,3.50
2023-01-03T19:13:50.517Z,3.33
2023-01-03T19:16:22.893Z,4.10
2023-01-03T19:18:54.330Z,4.70
2023-01-03T19:21:25.806Z,5.00
2023-01-03T19:24:02.105Z,4.50
2023-01-03T19:26:37.058Z,4.40
2023-01-03T19:29:14.320Z,4.57
2023-01-03T19:31:50.184Z,5.50
2023-01-03T19:34:21.646Z,4.73
2023-01-03T19:36:51.564Z,5.80
2023-01-03T19:39:26.746Z,5.13
2023-01-03T19:42:13.607Z,4.87
2023-01-03T19:44:47.018Z,4.43
2023-01-03T19:47:19.967Z,4.10
2023-01-03T19:49:50.978Z,3.90
2023-01-03T19:52:21.355Z,3.27
2023-01-03T19:54:51.025Z,3.50
2023-01-03T19:57:25.244Z,3.10
2023-01-03T20:00:01.097Z,3.70
2023-01-03T20:02:39.764Z,2.93
2023-01-03T20:05:19.937Z,3.00
2023-01-03T20:07:50.480Z,2.60
2023-01-03T20:10:22.251Z,2.47
2023-01-03T20:12:55.761Z,2.43
2023-01-03T20:15:30.740Z,2.20
2023-01-03T20:18:00.886Z,2.30
2023-01-03T20:20:33.396Z,2.20
2023-01-03T20:23:07.059Z,2.60
2023-01-03T20:25:39.635Z,1.63
2023-01-03T20:28:16.215Z,1.80
2023-01-03T20:30:51.716Z,1.73
2023-01-03T20:33:23.375Z,2.87
2023-01-03T20:36:20.003Z,2.00
2023-01-03T20:38:49.860Z,2.27
2023-01-03T20:41:21.076Z,2.00
2023-01-03T20:43:52.343Z,1.47
2023-01-03T20:46:25.181Z,2.43
2023-01-03T20:48:58.548Z,1.93
2023-01-03T20:51:29.331Z,3.50
2023-01-03T20:53:59.032Z,4.60
2023-01-03T20:56:29.325Z,1.60
2023-01-03T20:58:59.029Z,1.57
2023-01-03T21:01:31.450Z,1.53
2023-01-03T21:04:01.203Z,1.50
2023-01-03T21:06:31.882Z,2.17
2023-01-03T21:08:59.277Z,1.80
2023-01-03T21:11:30.882Z,1.37
2023-01-03T21:14:02.348Z,1.43
2023-01-03T21:16:36.936Z,1.67
2023-01-03T21:19:09.366Z,1.80
2023-01-03T21:21:39.021Z,1.80
2023-01-03T21:24:10.488Z,2.10
2023-01-03T21:26:40.484Z,1.60
2023-01-03T21:29:12.147Z,1.90
2023-01-03T21:31:45.713Z,2.00
2023-01-03T21:34:19.596Z,2.00
2023-01-03T21:36:49.702Z,1.97
2023-01-03T21:39:20.558Z,2.23
2023-01-03T21:42:02.761Z,2.10
2023-01-03T21:44:32.409Z,1.90
2023-01-03T21:47:04.763Z,2.17
2023-01-03T21:49:34.713Z,2.23
2023-01-03T21:52:04.665Z,2.20
2023-01-03T21:54:34.503Z,1.90
2023-01-03T21:57:04.371Z,2.57
2023-01-03T21:59:38.176Z,2.47
2023-01-03T22:02:25.221Z,2.20
2023-01-03T22:04:55.133Z,2.73
2023-01-03T22:07:25.803Z,2.10
2023-01-03T22:10:08.030Z,2.57
2023-01-03T22:12:37.787Z,2.17
2023-01-03T22:15:08.711Z,2.27
2023-01-03T22:17:43.234Z,2.37
2023-01-03T22:20:15.278Z,2.67
2023-01-03T22:22:47.425Z,1.97
2023-01-03T22:25:22.684Z,2.67
2023-01-03T22:27:52.608Z,2.30
2023-01-03T22:30:22.904Z,2.23
2023-01-03T22:32:58.838Z,1.90
2023-01-03T22:35:28.566Z,2.20
2023-01-03T22:37:59.115Z,2.13
2023-01-03T22:40:29.829Z,2.43
2023-01-03T22:42:59.456Z,2.47
2023-01-03T22:45:29.181Z,1.77
2023-01-03T22:48:02.751Z,2.00
2023-01-03T22:50:33.503Z,1.90
2023-01-03T22:53:04.410Z,2.50
2023-01-03T22:55:35.251Z,2.43
2023-01-03T22:58:05.289Z,2.87
2023-01-03T23:00:35.001Z,2.50
2023-01-03T23:03:07.399Z,2.20
2023-01-03T23:05:38.022Z,2.30
2023-01-03T23:08:09.767Z,2.13
2023-01-03T23:10:39.506Z,2.40
2023-01-03T23:13:07.735Z,2.30
2023-01-03T23:15:37.408Z,2.30
2023-01-03T23:18:10.718Z,2.27
2023-01-03T23:20:49.036Z,2.13
2023-01-03T23:23:19.032Z,2.07
2023-01-03T23:25:48.816Z,1.90
2023-01-03T23:28:18.748Z,1.80
2023-01-03T23:30:49.057Z,1.90
2023-01-03T23:33:21.875Z,2.50
2023-01-03T23:35:53.811Z,2.33
2023-01-03T23:38:23.500Z,2.43
2023-01-03T23:40:53.249Z,2.30
2023-01-03T23:43:22.951Z,1.97
2023-01-03T23:45:53.744Z,2.13
2023-01-03T23:48:26.036Z,2.30
2023-01-03T23:50:55.656Z,2.00
2023-01-03T23:53:25.262Z,2.03
2023-01-03T23:55:54.887Z,2.40
2023-01-03T23:58:24.549Z,1.83
